sensor_id;sensor_type;location;lat;lon;timestamp;P1;durP1;ratioP1;P2;durP2;ratioP2
20653;SDS011;21083;50.898;4.902;2022-07-29T00:00:19;7.63;;;2.10;;
20653;SDS011;21083;50.898;4.902;2022-07-29T00:02:46;8.02;;;1.48;;
20653;SDS011;21083;50.898;4.902;2022-07-29T00:05:13;6.53;;;1.90;;
20653;SDS011;21083;50.898;4.902;2022-07-29T00:07:40;4.82;;;1.40;;
20653;SDS011;21083;50.898;4.902;2022-07-29T00:10:08;7.72;;;1.63;;
20653;SDS011;21083;50.898;4.902;2022-07-29T00:12:35;5.63;;;1.70;;
20653;SDS011;21083;50.898;4.902;2022-07-29T00:15:03;8.95;;;1.75;;
20653;SDS011;21083;50.898;4.902;2022-07-29T00:17:30;10.15;;;1.77;;
20653;SDS011;21083;50.898;4.902;2022-07-29T00:19:59;6.88;;;1.67;;
20653;SDS011;21083;50.898;4.902;2022-07-29T00:22:26;6.63;;;1.33;;
20653;SDS011;21083;50.898;4.902;2022-07-29T00:24:53;10.70;;;1.70;;
20653;SDS011;21083;50.898;4.902;2022-07-29T00:27:21;8.48;;;1.92;;
20653;SDS011;21083;50.898;4.902;2022-07-29T00:29:48;10.68;;;2.38;;
20653;SDS011;21083;50.898;4.902;2022-07-29T00:32:15;8.98;;;2.13;;
20653;SDS011;21083;50.898;4.902;2022-07-29T00:34:42;9.35;;;1.90;;
20653;SDS011;21083;50.898;4.902;2022-07-29T00:37:27;9.20;;;1.58;;
20653;SDS011;21083;50.898;4.902;2022-07-29T00:39:53;10.43;;;2.67;;
20653;SDS011;21083;50.898;4.902;2022-07-29T00:42:22;4.57;;;2.10;;
20653;SDS011;21083;50.898;4.902;2022-07-29T00:44:48;6.45;;;1.80;;
20653;SDS011;21083;50.898;4.902;2022-07-29T00:47:15;7.50;;;2.08;;
20653;SDS011;21083;50.898;4.902;2022-07-29T00:49:42;8.63;;;2.33;;
20653;SDS011;21083;50.898;4.902;2022-07-29T00:52:10;7.13;;;1.70;;
20653;SDS011;21083;50.898;4.902;2022-07-29T00:54:38;12.55;;;1.75;;
20653;SDS011;21083;50.898;4.902;2022-07-29T00:57:06;7.25;;;1.77;;
20653;SDS011;21083;50.898;4.902;2022-07-29T00:59:35;6.93;;;1.75;;
20653;SDS011;21083;50.898;4.902;2022-07-29T01:02:02;4.68;;;1.77;;
20653;SDS011;21083;50.898;4.902;2022-07-29T01:04:29;7.25;;;1.90;;
20653;SDS011;21083;50.898;4.902;2022-07-29T01:06:57;8.70;;;2.05;;
20653;SDS011;21083;50.898;4.902;2022-07-29T01:09:26;7.13;;;2.53;;
20653;SDS011;21083;50.898;4.902;2022-07-29T01:11:54;8.02;;;1.75;;
20653;SDS011;21083;50.898;4.902;2022-07-29T01:14:21;6.07;;;1.80;;
20653;SDS011;21083;50.898;4.902;2022-07-29T01:16:51;8.82;;;1.63;;
20653;SDS011;21083;50.898;4.902;2022-07-29T01:19:33;8.35;;;2.55;;
20653;SDS011;21083;50.898;4.902;2022-07-29T01:22:19;8.15;;;1.95;;
20653;SDS011;21083;50.898;4.902;2022-07-29T01:25:02;12.10;;;1.90;;
20653;SDS011;21083;50.898;4.902;2022-07-29T01:30:51;9.00;;;2.03;;
20653;SDS011;21083;50.898;4.902;2022-07-29T01:33:19;9.48;;;1.75;;
20653;SDS011;21083;50.898;4.902;2022-07-29T01:36:09;11.15;;;1.88;;
20653;SDS011;21083;50.898;4.902;2022-07-29T01:38:39;9.95;;;1.90;;
20653;SDS011;21083;50.898;4.902;2022-07-29T01:41:09;5.22;;;1.48;;
20653;SDS011;21083;50.898;4.902;2022-07-29T01:43:42;6.40;;;1.92;;
20653;SDS011;21083;50.898;4.902;2022-07-29T01:46:17;13.40;;;2.25;;
20653;SDS011;21083;50.898;4.902;2022-07-29T01:48:51;8.05;;;1.70;;
20653;SDS011;21083;50.898;4.902;2022-07-29T01:51:24;8.60;;;2.08;;
20653;SDS011;21083;50.898;4.902;2022-07-29T01:53:57;7.13;;;2.00;;
20653;SDS011;21083;50.898;4.902;2022-07-29T01:56:30;7.50;;;2.00;;
20653;SDS011;21083;50.898;4.902;2022-07-29T01:58:58;6.68;;;2.00;;
20653;SDS011;21083;50.898;4.902;2022-07-29T02:01:28;6.93;;;2.10;;
20653;SDS011;21083;50.898;4.902;2022-07-29T02:03:57;9.27;;;2.00;;
20653;SDS011;21083;50.898;4.902;2022-07-29T02:06:25;10.40;;;2.15;;
20653;SDS011;21083;50.898;4.902;2022-07-29T02:08:53;9.57;;;2.53;;
20653;SDS011;21083;50.898;4.902;2022-07-29T02:11:23;8.40;;;2.30;;
20653;SDS011;21083;50.898;4.902;2022-07-29T02:13:50;12.05;;;2.28;;
20653;SDS011;21083;50.898;4.902;2022-07-29T02:16:21;6.20;;;2.13;;
20653;SDS011;21083;50.898;4.902;2022-07-29T02:18:52;10.45;;;3.28;;
20653;SDS011;21083;50.898;4.902;2022-07-29T02:21:23;8.23;;;2.45;;
20653;SDS011;21083;50.898;4.902;2022-07-29T02:23:53;12.25;;;2.38;;
20653;SDS011;21083;50.898;4.902;2022-07-29T02:26:23;9.93;;;2.40;;
20653;SDS011;21083;50.898;4.902;2022-07-29T02:28:52;8.13;;;2.42;;
20653;SDS011;21083;50.898;4.902;2022-07-29T02:31:22;7.72;;;2.17;;
20653;SDS011;21083;50.898;4.902;2022-07-29T02:33:53;7.18;;;2.05;;
20653;SDS011;21083;50.898;4.902;2022-07-29T02:36:22;10.65;;;3.17;;
20653;SDS011;21083;50.898;4.902;2022-07-29T02:38:50;9.48;;;3.08;;
20653;SDS011;21083;50.898;4.902;2022-07-29T02:41:23;8.45;;;2.10;;
20653;SDS011;21083;50.898;4.902;2022-07-29T02:43:53;12.77;;;2.42;;
20653;SDS011;21083;50.898;4.902;2022-07-29T02:46:25;5.82;;;2.08;;
20653;SDS011;21083;50.898;4.902;2022-07-29T02:49:01;7.60;;;2.70;;
20653;SDS011;21083;50.898;4.902;2022-07-29T02:51:33;10.68;;;2.75;;
20653;SDS011;21083;50.898;4.902;2022-07-29T02:54:07;7.60;;;2.72;;
20653;SDS011;21083;50.898;4.902;2022-07-29T02:56:36;11.18;;;3.45;;
20653;SDS011;21083;50.898;4.902;2022-07-29T02:59:06;10.90;;;2.75;;
20653;SDS011;21083;50.898;4.902;2022-07-29T03:01:36;8.13;;;2.50;;
20653;SDS011;21083;50.898;4.902;2022-07-29T03:04:09;7.50;;;2.20;;
20653;SDS011;21083;50.898;4.902;2022-07-29T03:06:38;7.22;;;2.45;;
20653;SDS011;21083;50.898;4.902;2022-07-29T03:09:07;7.60;;;2.15;;
20653;SDS011;21083;50.898;4.902;2022-07-29T03:11:36;4.82;;;2.30;;
20653;SDS011;21083;50.898;4.902;2022-07-29T03:14:04;10.23;;;2.47;;
20653;SDS011;21083;50.898;4.902;2022-07-29T03:16:32;6.28;;;2.50;;
20653;SDS011;21083;50.898;4.902;2022-07-29T03:19:01;9.85;;;2.22;;
20653;SDS011;21083;50.898;4.902;2022-07-29T03:21:31;7.60;;;2.20;;
20653;SDS011;21083;50.898;4.902;2022-07-29T03:23:58;11.13;;;2.75;;
20653;SDS011;21083;50.898;4.902;2022-07-29T03:26:25;7.32;;;2.28;;
20653;SDS011;21083;50.898;4.902;2022-07-29T03:28:52;10.32;;;2.88;;
20653;SDS011;21083;50.898;4.902;2022-07-29T03:31:18;9.45;;;2.72;;
20653;SDS011;21083;50.898;4.902;2022-07-29T03:33:45;8.77;;;2.08;;
20653;SDS011;21083;50.898;4.902;2022-07-29T03:36:12;9.02;;;2.45;;
20653;SDS011;21083;50.898;4.902;2022-07-29T03:38:41;11.98;;;2.70;;
20653;SDS011;21083;50.898;4.902;2022-07-29T03:41:10;8.13;;;2.20;;
20653;SDS011;21083;50.898;4.902;2022-07-29T03:43:39;9.43;;;2.83;;
20653;SDS011;21083;50.898;4.902;2022-07-29T03:46:08;8.38;;;2.50;;
20653;SDS011;21083;50.898;4.902;2022-07-29T03:48:37;7.97;;;2.63;;
20653;SDS011;21083;50.898;4.902;2022-07-29T03:51:08;8.00;;;2.50;;
20653;SDS011;21083;50.898;4.902;2022-07-29T03:53:35;8.40;;;2.45;;
20653;SDS011;21083;50.898;4.902;2022-07-29T03:56:04;8.35;;;3.20;;
20653;SDS011;21083;50.898;4.902;2022-07-29T03:58:33;7.30;;;2.17;;
20653;SDS011;21083;50.898;4.902;2022-07-29T04:01:01;6.22;;;2.35;;
20653;SDS011;21083;50.898;4.902;2022-07-29T04:03:28;6.60;;;2.08;;
20653;SDS011;21083;50.898;4.902;2022-07-29T04:05:59;7.30;;;2.20;;
20653;SDS011;21083;50.898;4.902;2022-07-29T04:08:28;7.40;;;2.42;;
20653;SDS011;21083;50.898;4.902;2022-07-29T04:10:55;11.55;;;2.90;;
20653;SDS011;21083;50.898;4.902;2022-07-29T04:13:23;9.60;;;2.78;;
20653;SDS011;21083;50.898;4.902;2022-07-29T04:15:50;8.38;;;2.40;;
20653;SDS011;21083;50.898;4.902;2022-07-29T04:18:17;7.80;;;2.22;;
20653;SDS011;21083;50.898;4.902;2022-07-29T04:20:44;7.15;;;2.47;;
20653;SDS011;21083;50.898;4.902;2022-07-29T04:23:11;9.20;;;2.75;;
20653;SDS011;21083;50.898;4.902;2022-07-29T04:25:38;8.13;;;2.95;;
20653;SDS011;21083;50.898;4.902;2022-07-29T04:28:05;10.15;;;2.65;;
20653;SDS011;21083;50.898;4.902;2022-07-29T04:30:35;9.13;;;2.95;;
20653;SDS011;21083;50.898;4.902;2022-07-29T04:33:03;8.05;;;2.60;;
20653;SDS011;21083;50.898;4.902;2022-07-29T04:35:33;7.28;;;2.88;;
20653;SDS011;21083;50.898;4.902;2022-07-29T04:38:01;7.40;;;2.63;;
20653;SDS011;21083;50.898;4.902;2022-07-29T04:40:28;9.25;;;2.92;;
20653;SDS011;21083;50.898;4.902;2022-07-29T04:42:56;11.77;;;3.38;;
20653;SDS011;21083;50.898;4.902;2022-07-29T04:45:23;10.43;;;3.03;;
20653;SDS011;21083;50.898;4.902;2022-07-29T04:47:51;11.57;;;3.35;;
20653;SDS011;21083;50.898;4.902;2022-07-29T04:50:18;7.97;;;2.85;;
20653;SDS011;21083;50.898;4.902;2022-07-29T04:52:45;6.80;;;2.45;;
20653;SDS011;21083;50.898;4.902;2022-07-29T04:55:11;9.13;;;2.95;;
20653;SDS011;21083;50.898;4.902;2022-07-29T04:57:38;9.80;;;2.45;;
20653;SDS011;21083;50.898;4.902;2022-07-29T05:00:05;8.43;;;2.38;;
20653;SDS011;21083;50.898;4.902;2022-07-29T05:02:34;7.93;;;2.40;;
20653;SDS011;21083;50.898;4.902;2022-07-29T05:05:02;7.68;;;2.42;;
20653;SDS011;21083;50.898;4.902;2022-07-29T05:07:29;8.65;;;3.78;;
20653;SDS011;21083;50.898;4.902;2022-07-29T05:09:56;7.45;;;2.28;;
20653;SDS011;21083;50.898;4.902;2022-07-29T05:12:23;7.65;;;2.33;;
20653;SDS011;21083;50.898;4.902;2022-07-29T05:14:50;9.07;;;2.28;;
20653;SDS011;21083;50.898;4.902;2022-07-29T05:17:17;5.80;;;2.25;;
20653;SDS011;21083;50.898;4.902;2022-07-29T05:19:43;9.43;;;2.60;;
20653;SDS011;21083;50.898;4.902;2022-07-29T05:22:12;21.95;;;3.70;;
20653;SDS011;21083;50.898;4.902;2022-07-29T05:24:39;10.02;;;2.63;;
20653;SDS011;21083;50.898;4.902;2022-07-29T05:27:05;8.75;;;2.60;;
20653;SDS011;21083;50.898;4.902;2022-07-29T05:29:32;6.38;;;2.20;;
20653;SDS011;21083;50.898;4.902;2022-07-29T05:31:59;8.93;;;2.90;;
20653;SDS011;21083;50.898;4.902;2022-07-29T05:34:26;8.90;;;2.95;;
20653;SDS011;21083;50.898;4.902;2022-07-29T05:36:53;12.45;;;2.83;;
20653;SDS011;21083;50.898;4.902;2022-07-29T05:39:22;6.72;;;2.90;;
20653;SDS011;21083;50.898;4.902;2022-07-29T05:41:49;12.40;;;2.63;;
20653;SDS011;21083;50.898;4.902;2022-07-29T05:44:15;7.38;;;3.03;;
20653;SDS011;21083;50.898;4.902;2022-07-29T05:46:43;10.52;;;3.03;;
20653;SDS011;21083;50.898;4.902;2022-07-29T05:49:09;9.02;;;3.30;;
20653;SDS011;21083;50.898;4.902;2022-07-29T05:51:37;10.68;;;2.85;;
20653;SDS011;21083;50.898;4.902;2022-07-29T05:54:03;10.95;;;3.45;;
20653;SDS011;21083;50.898;4.902;2022-07-29T05:56:32;8.88;;;3.20;;
20653;SDS011;21083;50.898;4.902;2022-07-29T05:58:59;10.05;;;3.17;;
20653;SDS011;21083;50.898;4.902;2022-07-29T06:01:26;8.38;;;3.20;;
20653;SDS011;21083;50.898;4.902;2022-07-29T06:03:52;8.88;;;3.40;;
20653;SDS011;21083;50.898;4.902;2022-07-29T06:06:19;9.00;;;3.75;;
20653;SDS011;21083;50.898;4.902;2022-07-29T06:08:46;12.80;;;3.97;;
20653;SDS011;21083;50.898;4.902;2022-07-29T06:11:14;9.45;;;3.53;;
20653;SDS011;21083;50.898;4.902;2022-07-29T06:13:42;10.48;;;3.15;;
20653;SDS011;21083;50.898;4.902;2022-07-29T06:16:09;13.45;;;3.60;;
20653;SDS011;21083;50.898;4.902;2022-07-29T06:18:36;10.88;;;3.28;;
20653;SDS011;21083;50.898;4.902;2022-07-29T06:21:06;10.20;;;3.28;;
20653;SDS011;21083;50.898;4.902;2022-07-29T06:23:34;12.48;;;4.10;;
20653;SDS011;21083;50.898;4.902;2022-07-29T06:26:02;13.02;;;4.13;;
20653;SDS011;21083;50.898;4.902;2022-07-29T06:28:29;7.63;;;3.28;;
20653;SDS011;21083;50.898;4.902;2022-07-29T06:30:58;9.23;;;3.67;;
20653;SDS011;21083;50.898;4.902;2022-07-29T06:33:25;11.52;;;3.90;;
20653;SDS011;21083;50.898;4.902;2022-07-29T06:35:52;12.68;;;4.05;;
20653;SDS011;21083;50.898;4.902;2022-07-29T06:38:19;13.32;;;4.63;;
20653;SDS011;21083;50.898;4.902;2022-07-29T06:40:46;12.25;;;4.88;;
20653;SDS011;21083;50.898;4.902;2022-07-29T06:43:30;9.98;;;4.10;;
20653;SDS011;21083;50.898;4.902;2022-07-29T06:46:02;8.48;;;3.30;;
20653;SDS011;21083;50.898;4.902;2022-07-29T06:48:31;8.98;;;3.78;;
20653;SDS011;21083;50.898;4.902;2022-07-29T06:50:59;12.30;;;3.95;;
20653;SDS011;21083;50.898;4.902;2022-07-29T06:53:26;11.68;;;4.55;;
20653;SDS011;21083;50.898;4.902;2022-07-29T06:55:54;25.05;;;5.18;;
20653;SDS011;21083;50.898;4.902;2022-07-29T06:58:21;8.07;;;3.70;;
20653;SDS011;21083;50.898;4.902;2022-07-29T07:00:48;10.70;;;4.05;;
20653;SDS011;21083;50.898;4.902;2022-07-29T07:03:17;8.35;;;3.60;;
20653;SDS011;21083;50.898;4.902;2022-07-29T07:05:44;8.88;;;4.00;;
20653;SDS011;21083;50.898;4.902;2022-07-29T07:08:12;11.15;;;3.53;;
20653;SDS011;21083;50.898;4.902;2022-07-29T07:10:41;9.65;;;3.58;;
20653;SDS011;21083;50.898;4.902;2022-07-29T07:13:08;10.13;;;3.85;;
20653;SDS011;21083;50.898;4.902;2022-07-29T07:15:35;9.13;;;3.65;;
20653;SDS011;21083;50.898;4.902;2022-07-29T07:18:02;13.57;;;4.43;;
20653;SDS011;21083;50.898;4.902;2022-07-29T07:20:30;10.02;;;4.07;;
20653;SDS011;21083;50.898;4.902;2022-07-29T07:22:58;9.82;;;3.85;;
20653;SDS011;21083;50.898;4.902;2022-07-29T07:25:25;11.70;;;3.90;;
20653;SDS011;21083;50.898;4.902;2022-07-29T07:27:52;12.27;;;3.97;;
20653;SDS011;21083;50.898;4.902;2022-07-29T07:30:19;9.63;;;3.85;;
20653;SDS011;21083;50.898;4.902;2022-07-29T07:32:46;9.65;;;3.38;;
20653;SDS011;21083;50.898;4.902;2022-07-29T07:35:13;9.43;;;3.67;;
20653;SDS011;21083;50.898;4.902;2022-07-29T07:37:41;12.35;;;4.55;;
20653;SDS011;21083;50.898;4.902;2022-07-29T07:40:09;8.00;;;4.03;;
20653;SDS011;21083;50.898;4.902;2022-07-29T07:42:37;10.25;;;4.05;;
20653;SDS011;21083;50.898;4.902;2022-07-29T07:45:05;10.02;;;3.38;;
20653;SDS011;21083;50.898;4.902;2022-07-29T07:47:34;13.90;;;3.67;;
20653;SDS011;21083;50.898;4.902;2022-07-29T07:50:01;11.88;;;3.70;;
20653;SDS011;21083;50.898;4.902;2022-07-29T07:52:29;8.07;;;3.75;;
20653;SDS011;21083;50.898;4.902;2022-07-29T07:54:57;13.40;;;4.45;;
20653;SDS011;21083;50.898;4.902;2022-07-29T07:57:24;10.55;;;4.38;;
20653;SDS011;21083;50.898;4.902;2022-07-29T07:59:51;10.75;;;3.95;;
20653;SDS011;21083;50.898;4.902;2022-07-29T08:02:18;13.13;;;3.78;;
20653;SDS011;21083;50.898;4.902;2022-07-29T08:04:44;10.77;;;3.50;;
20653;SDS011;21083;50.898;4.902;2022-07-29T08:07:11;11.85;;;3.85;;
20653;SDS011;21083;50.898;4.902;2022-07-29T08:09:39;9.13;;;4.15;;
20653;SDS011;21083;50.898;4.902;2022-07-29T08:12:08;11.25;;;3.38;;
20653;SDS011;21083;50.898;4.902;2022-07-29T08:14:35;8.10;;;3.45;;
20653;SDS011;21083;50.898;4.902;2022-07-29T08:17:02;11.43;;;3.53;;
20653;SDS011;21083;50.898;4.902;2022-07-29T08:19:29;11.40;;;3.25;;
20653;SDS011;21083;50.898;4.902;2022-07-29T08:21:56;7.82;;;2.50;;
20653;SDS011;21083;50.898;4.902;2022-07-29T08:24:23;7.68;;;3.08;;
20653;SDS011;21083;50.898;4.902;2022-07-29T08:27:09;9.63;;;3.50;;
20653;SDS011;21083;50.898;4.902;2022-07-29T08:29:36;10.30;;;3.10;;
20653;SDS011;21083;50.898;4.902;2022-07-29T08:32:04;11.52;;;3.95;;
20653;SDS011;21083;50.898;4.902;2022-07-29T08:34:31;13.85;;;3.50;;
20653;SDS011;21083;50.898;4.902;2022-07-29T08:36:59;13.02;;;3.60;;
20653;SDS011;21083;50.898;4.902;2022-07-29T08:39:26;11.98;;;3.58;;
20653;SDS011;21083;50.898;4.902;2022-07-29T08:41:52;12.13;;;3.22;;
20653;SDS011;21083;50.898;4.902;2022-07-29T08:44:21;7.43;;;2.85;;
20653;SDS011;21083;50.898;4.902;2022-07-29T08:46:48;9.25;;;3.83;;
20653;SDS011;21083;50.898;4.902;2022-07-29T08:49:15;9.32;;;3.38;;
20653;SDS011;21083;50.898;4.902;2022-07-29T08:51:43;9.60;;;2.90;;
20653;SDS011;21083;50.898;4.902;2022-07-29T08:54:10;11.00;;;3.03;;
20653;SDS011;21083;50.898;4.902;2022-07-29T08:56:42;8.57;;;3.20;;
20653;SDS011;21083;50.898;4.902;2022-07-29T08:59:10;10.75;;;3.60;;
20653;SDS011;21083;50.898;4.902;2022-07-29T09:01:40;10.25;;;2.90;;
20653;SDS011;21083;50.898;4.902;2022-07-29T09:04:11;9.82;;;2.88;;
20653;SDS011;21083;50.898;4.902;2022-07-29T09:06:42;6.95;;;2.78;;
20653;SDS011;21083;50.898;4.902;2022-07-29T09:09:10;9.95;;;3.22;;
20653;SDS011;21083;50.898;4.902;2022-07-29T09:11:38;8.93;;;3.50;;
20653;SDS011;21083;50.898;4.902;2022-07-29T09:14:06;8.65;;;3.28;;
20653;SDS011;21083;50.898;4.902;2022-07-29T09:16:47;9.40;;;2.70;;
20653;SDS011;21083;50.898;4.902;2022-07-29T09:19:22;11.88;;;2.88;;
20653;SDS011;21083;50.898;4.902;2022-07-29T09:21:51;5.68;;;2.47;;
20653;SDS011;21083;50.898;4.902;2022-07-29T09:24:23;8.75;;;3.00;;
20653;SDS011;21083;50.898;4.902;2022-07-29T09:26:51;6.50;;;2.60;;
20653;SDS011;21083;50.898;4.902;2022-07-29T09:29:18;11.15;;;2.65;;
20653;SDS011;21083;50.898;4.902;2022-07-29T09:31:50;8.02;;;2.40;;
20653;SDS011;21083;50.898;4.902;2022-07-29T09:34:21;5.80;;;2.35;;
20653;SDS011;21083;50.898;4.902;2022-07-29T09:36:50;9.40;;;2.47;;
20653;SDS011;21083;50.898;4.902;2022-07-29T09:39:28;8.80;;;2.42;;
20653;SDS011;21083;50.898;4.902;2022-07-29T09:41:56;13.05;;;2.90;;
20653;SDS011;21083;50.898;4.902;2022-07-29T09:44:25;4.97;;;2.20;;
20653;SDS011;21083;50.898;4.902;2022-07-29T09:46:54;9.02;;;2.40;;
20653;SDS011;21083;50.898;4.902;2022-07-29T09:49:23;7.25;;;1.90;;
20653;SDS011;21083;50.898;4.902;2022-07-29T09:51:58;8.48;;;2.20;;
20653;SDS011;21083;50.898;4.902;2022-07-29T09:54:26;7.82;;;2.22;;
20653;SDS011;21083;50.898;4.902;2022-07-29T09:56:59;8.15;;;2.92;;
20653;SDS011;21083;50.898;4.902;2022-07-29T09:59:26;5.70;;;2.15;;
20653;SDS011;21083;50.898;4.902;2022-07-29T10:01:54;7.80;;;2.08;;
20653;SDS011;21083;50.898;4.902;2022-07-29T10:04:22;5.13;;;1.88;;
20653;SDS011;21083;50.898;4.902;2022-07-29T10:06:56;13.18;;;2.60;;
20653;SDS011;21083;50.898;4.902;2022-07-29T10:09:24;4.53;;;2.15;;
20653;SDS011;21083;50.898;4.902;2022-07-29T10:12:04;11.82;;;3.47;;
20653;SDS011;21083;50.898;4.902;2022-07-29T10:14:33;6.75;;;2.22;;
20653;SDS011;21083;50.898;4.902;2022-07-29T10:17:02;9.73;;;2.15;;
20653;SDS011;21083;50.898;4.902;2022-07-29T10:19:30;6.95;;;2.10;;
20653;SDS011;21083;50.898;4.902;2022-07-29T10:21:58;6.97;;;2.50;;
20653;SDS011;21083;50.898;4.902;2022-07-29T10:24:26;8.20;;;2.00;;
20653;SDS011;21083;50.898;4.902;2022-07-29T10:26:54;4.78;;;1.80;;
20653;SDS011;21083;50.898;4.902;2022-07-29T10:29:22;9.13;;;2.55;;
20653;SDS011;21083;50.898;4.902;2022-07-29T10:31:50;10.88;;;2.45;;
20653;SDS011;21083;50.898;4.902;2022-07-29T10:34:33;8.20;;;2.35;;
20653;SDS011;21083;50.898;4.902;2022-07-29T10:37:12;6.70;;;2.25;;
20653;SDS011;21083;50.898;4.902;2022-07-29T10:39:48;5.07;;;1.80;;
20653;SDS011;21083;50.898;4.902;2022-07-29T10:42:25;5.70;;;1.80;;
20653;SDS011;21083;50.898;4.902;2022-07-29T10:44:55;4.20;;;1.58;;
20653;SDS011;21083;50.898;4.902;2022-07-29T10:47:23;4.25;;;1.80;;
20653;SDS011;21083;50.898;4.902;2022-07-29T10:49:56;7.53;;;2.45;;
20653;SDS011;21083;50.898;4.902;2022-07-29T10:52:24;7.60;;;2.30;;
20653;SDS011;21083;50.898;4.902;2022-07-29T10:55:25;6.72;;;2.10;;
20653;SDS011;21083;50.898;4.902;2022-07-29T10:58:10;6.47;;;2.10;;
20653;SDS011;21083;50.898;4.902;2022-07-29T11:00:38;6.25;;;1.75;;
20653;SDS011;21083;50.898;4.902;2022-07-29T11:03:05;4.72;;;1.60;;
20653;SDS011;21083;50.898;4.902;2022-07-29T11:08:24;7.75;;;2.50;;
20653;SDS011;21083;50.898;4.902;2022-07-29T11:10:52;6.53;;;2.25;;
20653;SDS011;21083;50.898;4.902;2022-07-29T11:16:25;5.97;;;1.98;;
20653;SDS011;21083;50.898;4.902;2022-07-29T11:19:19;6.13;;;1.67;;
20653;SDS011;21083;50.898;4.902;2022-07-29T11:21:48;7.50;;;2.35;;
20653;SDS011;21083;50.898;4.902;2022-07-29T11:24:17;5.45;;;1.63;;
20653;SDS011;21083;50.898;4.902;2022-07-29T11:29:34;6.20;;;1.90;;
20653;SDS011;21083;50.898;4.902;2022-07-29T11:32:08;5.43;;;1.80;;
20653;SDS011;21083;50.898;4.902;2022-07-29T11:34:36;6.50;;;1.75;;
20653;SDS011;21083;50.898;4.902;2022-07-29T11:37:17;5.40;;;1.80;;
20653;SDS011;21083;50.898;4.902;2022-07-29T11:39:47;5.18;;;1.58;;
20653;SDS011;21083;50.898;4.902;2022-07-29T11:42:48;6.72;;;2.03;;
20653;SDS011;21083;50.898;4.902;2022-07-29T11:45:17;6.35;;;1.98;;
20653;SDS011;21083;50.898;4.902;2022-07-29T11:47:57;7.22;;;1.90;;
20653;SDS011;21083;50.898;4.902;2022-07-29T11:50:29;8.40;;;2.00;;
20653;SDS011;21083;50.898;4.902;2022-07-29T11:52:59;4.72;;;1.67;;
20653;SDS011;21083;50.898;4.902;2022-07-29T11:55:27;5.50;;;2.03;;
20653;SDS011;21083;50.898;4.902;2022-07-29T11:57:57;8.80;;;2.15;;
20653;SDS011;21083;50.898;4.902;2022-07-29T12:00:29;7.28;;;2.13;;
20653;SDS011;21083;50.898;4.902;2022-07-29T12:02:58;5.10;;;1.80;;
20653;SDS011;21083;50.898;4.902;2022-07-29T12:05:33;5.60;;;1.83;;
20653;SDS011;21083;50.898;4.902;2022-07-29T12:08:10;6.85;;;1.77;;
20653;SDS011;21083;50.898;4.902;2022-07-29T12:10:39;12.88;;;2.00;;
20653;SDS011;21083;50.898;4.902;2022-07-29T12:13:07;5.60;;;1.83;;
20653;SDS011;21083;50.898;4.902;2022-07-29T12:15:35;7.88;;;1.83;;
20653;SDS011;21083;50.898;4.902;2022-07-29T12:18:09;5.57;;;1.83;;
20653;SDS011;21083;50.898;4.902;2022-07-29T12:20:41;7.78;;;2.30;;
20653;SDS011;21083;50.898;4.902;2022-07-29T12:23:10;5.00;;;2.03;;
20653;SDS011;21083;50.898;4.902;2022-07-29T12:25:39;8.70;;;2.40;;
20653;SDS011;21083;50.898;4.902;2022-07-29T12:28:08;5.45;;;1.75;;
20653;SDS011;21083;50.898;4.902;2022-07-29T12:30:40;8.90;;;2.30;;
20653;SDS011;21083;50.898;4.902;2022-07-29T12:33:13;6.72;;;2.20;;
20653;SDS011;21083;50.898;4.902;2022-07-29T12:35:41;5.22;;;2.13;;
20653;SDS011;21083;50.898;4.902;2022-07-29T12:38:12;5.15;;;2.05;;
20653;SDS011;21083;50.898;4.902;2022-07-29T12:40:40;5.40;;;2.13;;
20653;SDS011;21083;50.898;4.902;2022-07-29T12:43:08;7.13;;;2.20;;
20653;SDS011;21083;50.898;4.902;2022-07-29T12:45:35;8.90;;;2.40;;
20653;SDS011;21083;50.898;4.902;2022-07-29T12:48:03;9.02;;;2.13;;
20653;SDS011;21083;50.898;4.902;2022-07-29T12:50:33;5.53;;;2.15;;
20653;SDS011;21083;50.898;4.902;2022-07-29T12:53:11;10.20;;;2.05;;
20653;SDS011;21083;50.898;4.902;2022-07-29T12:55:42;7.78;;;2.00;;
20653;SDS011;21083;50.898;4.902;2022-07-29T12:58:13;10.38;;;2.03;;
20653;SDS011;21083;50.898;4.902;2022-07-29T13:00:40;5.05;;;1.85;;
20653;SDS011;21083;50.898;4.902;2022-07-29T13:03:07;8.23;;;2.10;;
20653;SDS011;21083;50.898;4.902;2022-07-29T13:05:41;5.85;;;2.10;;
20653;SDS011;21083;50.898;4.902;2022-07-29T13:08:11;5.32;;;1.50;;
20653;SDS011;21083;50.898;4.902;2022-07-29T13:10:39;6.47;;;1.85;;
20653;SDS011;21083;50.898;4.902;2022-07-29T13:13:07;6.38;;;1.92;;
20653;SDS011;21083;50.898;4.902;2022-07-29T13:15:35;7.95;;;1.90;;
20653;SDS011;21083;50.898;4.902;2022-07-29T13:18:03;7.88;;;1.83;;
20653;SDS011;21083;50.898;4.902;2022-07-29T13:20:30;3.80;;;1.70;;
20653;SDS011;21083;50.898;4.902;2022-07-29T13:22:58;6.05;;;1.85;;
20653;SDS011;21083;50.898;4.902;2022-07-29T13:25:28;6.90;;;2.20;;
20653;SDS011;21083;50.898;4.902;2022-07-29T13:27:56;12.38;;;1.95;;
20653;SDS011;21083;50.898;4.902;2022-07-29T13:30:24;8.00;;;2.15;;
20653;SDS011;21083;50.898;4.902;2022-07-29T13:32:51;5.95;;;1.90;;
20653;SDS011;21083;50.898;4.902;2022-07-29T13:35:20;6.22;;;2.03;;
20653;SDS011;21083;50.898;4.902;2022-07-29T13:37:47;6.85;;;1.88;;
20653;SDS011;21083;50.898;4.902;2022-07-29T13:40:14;7.13;;;1.92;;
20653;SDS011;21083;50.898;4.902;2022-07-29T13:42:42;6.82;;;2.30;;
20653;SDS011;21083;50.898;4.902;2022-07-29T13:45:09;9.65;;;2.15;;
20653;SDS011;21083;50.898;4.902;2022-07-29T13:47:37;5.78;;;1.95;;
20653;SDS011;21083;50.898;4.902;2022-07-29T13:50:05;9.10;;;2.40;;
20653;SDS011;21083;50.898;4.902;2022-07-29T13:52:37;9.13;;;2.20;;
20653;SDS011;21083;50.898;4.902;2022-07-29T13:55:04;9.80;;;2.25;;
20653;SDS011;21083;50.898;4.902;2022-07-29T13:57:33;9.95;;;2.22;;
20653;SDS011;21083;50.898;4.902;2022-07-29T14:00:02;12.13;;;2.15;;
20653;SDS011;21083;50.898;4.902;2022-07-29T14:02:29;8.95;;;2.30;;
20653;SDS011;21083;50.898;4.902;2022-07-29T14:04:56;7.72;;;2.15;;
20653;SDS011;21083;50.898;4.902;2022-07-29T14:07:23;8.10;;;1.85;;
20653;SDS011;21083;50.898;4.902;2022-07-29T14:09:50;7.18;;;1.85;;
20653;SDS011;21083;50.898;4.902;2022-07-29T14:12:17;7.55;;;2.20;;
20653;SDS011;21083;50.898;4.902;2022-07-29T14:14:44;7.30;;;2.08;;
20653;SDS011;21083;50.898;4.902;2022-07-29T14:17:13;4.85;;;1.63;;
20653;SDS011;21083;50.898;4.902;2022-07-29T14:19:39;7.15;;;2.20;;
20653;SDS011;21083;50.898;4.902;2022-07-29T14:22:07;6.82;;;1.45;;
20653;SDS011;21083;50.898;4.902;2022-07-29T14:24:35;8.00;;;2.15;;
20653;SDS011;21083;50.898;4.902;2022-07-29T14:27:02;6.70;;;1.70;;
20653;SDS011;21083;50.898;4.902;2022-07-29T14:29:29;7.80;;;1.90;;
20653;SDS011;21083;50.898;4.902;2022-07-29T14:31:56;6.93;;;2.10;;
20653;SDS011;21083;50.898;4.902;2022-07-29T14:34:25;5.53;;;2.00;;
20653;SDS011;21083;50.898;4.902;2022-07-29T14:36:51;8.88;;;2.53;;
20653;SDS011;21083;50.898;4.902;2022-07-29T14:39:20;5.63;;;1.90;;
20653;SDS011;21083;50.898;4.902;2022-07-29T14:41:48;6.25;;;1.83;;
20653;SDS011;21083;50.898;4.902;2022-07-29T14:44:16;6.47;;;1.75;;
20653;SDS011;21083;50.898;4.902;2022-07-29T14:46:43;6.78;;;2.28;;
20653;SDS011;21083;50.898;4.902;2022-07-29T14:49:10;8.50;;;2.20;;
20653;SDS011;21083;50.898;4.902;2022-07-29T14:51:38;10.43;;;2.20;;
20653;SDS011;21083;50.898;4.902;2022-07-29T14:54:05;9.32;;;1.75;;
20653;SDS011;21083;50.898;4.902;2022-07-29T14:56:32;7.47;;;2.10;;
20653;SDS011;21083;50.898;4.902;2022-07-29T14:58:58;6.75;;;2.40;;
20653;SDS011;21083;50.898;4.902;2022-07-29T15:01:25;16.92;;;2.95;;
20653;SDS011;21083;50.898;4.902;2022-07-29T15:03:52;10.18;;;2.70;;
20653;SDS011;21083;50.898;4.902;2022-07-29T15:06:19;9.43;;;2.28;;